createdAt,value
2018-02-14T09:04:47.396Z,26.61
2018-02-14T09:05:20.337Z,26.61
2018-02-14T09:05:52.384Z,26.61
2018-02-14T09:06:24.460Z,26.61
2018-02-14T09:06:56.603Z,26.7
2018-02-14T09:07:28.928Z,26.7
2018-02-14T09:08:00.985Z,26.79
2018-02-14T09:08:32.976Z,26.61
2018-02-14T09:09:04.993Z,26.7
2018-02-14T09:09:37.022Z,26.7
2018-02-14T09:10:09.020Z,26.7
2018-02-14T09:10:41.040Z,26.7
2018-02-14T09:11:13.051Z,26.61
2018-02-14T09:11:45.072Z,26.51
2018-02-14T09:12:17.086Z,26.51
2018-02-14T09:12:49.153Z,26.79
2018-02-14T09:13:21.332Z,26.61
2018-02-14T09:13:54.146Z,26.51
2018-02-14T09:14:26.161Z,26.62
2018-02-14T09:14:58.163Z,26.42
2018-02-14T09:15:31.039Z,26.62
2018-02-14T09:16:03.068Z,26.62
2018-02-14T09:16:35.092Z,26.41
2018-02-14T09:17:07.244Z,26.42
2018-02-14T09:17:39.336Z,26.42
2018-02-14T09:18:11.361Z,26.52
2018-02-14T09:18:43.429Z,26.52
2018-02-14T09:19:15.448Z,26.62
2018-02-14T09:19:47.611Z,26.62
2018-02-14T09:20:19.608Z,26.23
2018-02-14T09:20:51.667Z,26.42
2018-02-14T09:21:23.669Z,26.14
2018-02-14T09:21:55.758Z,26.62
2018-02-14T09:22:27.858Z,26.62
2018-02-14T09:22:59.877Z,26.52
2018-02-14T09:23:31.839Z,26.52
2018-02-14T09:24:03.872Z,26.42
2018-02-14T09:24:35.856Z,26.62
2018-02-14T09:25:07.917Z,26.52
2018-02-14T09:25:39.999Z,26.62
2018-02-14T09:26:11.945Z,26.62
2018-02-14T09:26:44.032Z,26.52
2018-02-14T09:27:16.021Z,26.62
2018-02-14T09:27:48.030Z,26.62
2018-02-14T09:28:20.046Z,26.52
2018-02-14T09:28:52.666Z,26.62
2018-02-14T09:29:24.643Z,26.62
2018-02-14T09:29:56.655Z,26.62
2018-02-14T09:30:29.547Z,26.53
2018-02-14T09:31:01.545Z,26.62
2018-02-14T09:31:33.535Z,26.62
2018-02-14T09:32:05.516Z,26.42
2018-02-14T09:32:37.506Z,26.05
2018-02-14T09:33:09.501Z,26.63
2018-02-14T09:33:41.652Z,26.63
2018-02-14T09:34:13.652Z,26.63
2018-02-14T09:34:46.478Z,26.63
2018-02-14T09:35:18.460Z,26.52
2018-02-14T09:35:50.430Z,26.43
2018-02-14T09:36:22.429Z,26.63
2018-02-14T09:36:54.498Z,26.63
2018-02-14T09:37:26.551Z,26.63
2018-02-14T09:37:58.539Z,26.43
2018-02-14T09:38:30.509Z,26.43
2018-02-14T09:39:02.520Z,26.43
2018-02-14T09:39:34.524Z,26.43
2018-02-14T09:40:06.546Z,26.63
2018-02-14T09:40:38.534Z,26.63
2018-02-14T09:41:10.536Z,26.53
2018-02-14T09:41:42.566Z,26.53
2018-02-14T09:42:14.596Z,26.53
2018-02-14T09:42:46.598Z,26.43
2018-02-14T09:43:18.616Z,26.53
2018-02-14T09:43:50.614Z,26.53
2018-02-14T09:44:22.619Z,26.63
2018-02-14T09:44:54.686Z,26.43
2018-02-14T09:45:26.680Z,26.63
2018-02-14T09:45:58.697Z,26.43
2018-02-14T09:46:30.737Z,26.53
2018-02-14T09:47:02.749Z,26.63
2018-02-14T09:47:34.755Z,26.54
2018-02-14T09:48:06.738Z,26.54
2018-02-14T09:48:38.709Z,26.64
2018-02-14T09:49:10.806Z,26.53
2018-02-14T09:49:42.770Z,26.64
2018-02-14T09:50:14.747Z,26.64
2018-02-14T09:50:46.751Z,26.64
2018-02-14T09:51:18.899Z,26.64
2018-02-14T09:51:51.421Z,26.63
2018-02-14T09:52:23.432Z,26.54
2018-02-14T09:52:55.976Z,26.45
2018-02-14T09:53:27.976Z,26.54
2018-02-14T09:54:00.025Z,26.64
2018-02-14T09:54:32.309Z,26.64
2018-02-14T09:55:04.795Z,26.64
2018-02-14T09:55:36.763Z,26.64
2018-02-14T09:56:08.801Z,26.64
2018-02-14T09:56:41.571Z,26.64
2018-02-14T09:57:13.612Z,26.54
2018-02-14T09:57:45.663Z,26.64
2018-02-14T09:58:17.662Z,26.64
2018-02-14T09:58:49.704Z,26.64
2018-02-14T09:59:21.769Z,26.64
2018-02-14T09:59:53.726Z,26.45
2018-02-14T10:00:25.757Z,26.64
2018-02-14T10:00:57.770Z,26.54
2018-02-14T10:01:29.799Z,26.54
2018-02-14T10:02:01.857Z,26.54
2018-02-14T10:02:33.915Z,26.64
2018-02-14T10:03:05.954Z,26.64
2018-02-14T10:03:38.024Z,25.96
2018-02-14T10:04:09.985Z,26.64
2018-02-14T10:04:42.805Z,26.64
2018-02-14T10:05:14.880Z,26.64
2018-02-14T10:05:47.452Z,26.64
2018-02-14T10:06:19.823Z,26.54
2018-02-14T10:06:51.815Z,26.45
2018-02-14T10:07:23.868Z,26.65
2018-02-14T10:07:55.863Z,26.56
2018-02-14T10:08:27.857Z,26.56
2018-02-14T10:08:59.881Z,26.46
2018-02-14T10:09:32.006Z,26.54
2018-02-14T10:10:04.784Z,26.65
2018-02-14T10:10:36.955Z,26.56
2018-02-14T10:11:08.943Z,26.46
2018-02-14T10:11:40.960Z,26.65
2018-02-14T10:12:13.014Z,26.65
2018-02-14T10:12:46.039Z,26.46
2018-02-14T10:13:18.770Z,26.46
2018-02-14T10:13:51.600Z,26.46
2018-02-14T10:14:23.686Z,26.65
2018-02-14T10:14:55.744Z,26.46
2018-02-14T10:15:27.763Z,26.56
2018-02-14T10:15:59.760Z,26.46
2018-02-14T10:16:31.786Z,26.65
2018-02-14T10:17:03.893Z,26.46
2018-02-14T10:17:35.873Z,26.46
2018-02-14T10:18:07.948Z,26.46
2018-02-14T10:18:39.923Z,26.46
2018-02-14T10:19:11.878Z,26.65
2018-02-14T10:19:44.002Z,26.65
2018-02-14T10:20:16.814Z,26.56
2018-02-14T10:20:48.821Z,26.46
2018-02-14T10:21:20.820Z,26.56
2018-02-14T10:21:52.836Z,26.65
2018-02-14T10:22:24.838Z,26.56
2018-02-14T10:22:56.848Z,26.46
2018-02-14T10:23:28.878Z,26.46
2018-02-14T10:24:01.402Z,26.56
2018-02-14T10:24:33.392Z,26.46
2018-02-14T10:25:05.397Z,26.46
2018-02-14T10:25:37.408Z,26.46
2018-02-14T10:26:09.450Z,26.46
2018-02-14T10:26:41.419Z,26.46
2018-02-14T10:27:13.501Z,26.46
2018-02-14T10:27:45.517Z,26.56
2018-02-14T10:28:18.513Z,26.56
2018-02-14T10:28:50.572Z,26.48
2018-02-14T10:29:22.602Z,26.48
2018-02-14T10:29:54.595Z,26.48
2018-02-14T10:30:26.585Z,26.48
2018-02-14T10:30:58.633Z,26.48
2018-02-14T10:31:31.323Z,26.67
2018-02-14T10:32:03.321Z,26.48
2018-02-14T10:32:35.334Z,26.57
2018-02-14T10:33:07.378Z,26.57
2018-02-14T10:33:39.420Z,26.67
2018-02-14T10:34:11.416Z,26.67
2018-02-14T10:34:43.459Z,26.57
2018-02-14T10:35:15.995Z,26.67
2018-02-14T10:35:49.481Z,26.76
2018-02-14T10:36:21.499Z,26.48
2018-02-14T10:36:53.530Z,26.86
2018-02-14T10:37:25.536Z,26.48
2018-02-14T10:37:58.228Z,26.48
2018-02-14T10:38:30.232Z,26.57
2018-02-14T10:39:02.287Z,26.76
2018-02-14T10:39:34.376Z,26.87
2018-02-14T10:40:06.371Z,26.57
2018-02-14T10:40:38.390Z,26.76
2018-02-14T10:41:10.366Z,26.68
2018-02-14T10:41:42.681Z,26.29
2018-02-14T10:42:14.672Z,26.78
2018-02-14T10:42:46.679Z,26.78
2018-02-14T10:43:18.723Z,26.68
2018-02-14T10:43:50.808Z,26.68
2018-02-14T10:44:22.882Z,26.68
2018-02-14T10:44:54.886Z,26.68
2018-02-14T10:45:27.425Z,26.29
2018-02-14T10:45:59.485Z,26.49
2018-02-14T10:46:32.331Z,26.68
2018-02-14T10:47:04.437Z,26.59
2018-02-14T10:47:37.098Z,26.68
2018-02-14T10:48:09.105Z,26.59
2018-02-14T10:48:41.173Z,26.2
2018-02-14T10:49:13.182Z,26.68
2018-02-14T10:49:45.209Z,26.7
2018-02-14T10:50:17.247Z,26.7
2018-02-14T10:50:49.293Z,26.7
2018-02-14T10:51:21.330Z,26.7
2018-02-14T10:51:53.320Z,26.7
2018-02-14T10:52:25.995Z,26.6
2018-02-14T10:52:58.503Z,26.6
2018-02-14T10:53:30.629Z,26.6
2018-02-14T10:54:02.690Z,26.5
2018-02-14T10:54:34.757Z,26.6
2018-02-14T10:55:06.978Z,26.6
2018-02-14T10:55:38.995Z,26.89
2018-02-14T10:56:11.881Z,26.89
2018-02-14T10:56:44.193Z,26.5
2018-02-14T10:57:17.011Z,26.5
2018-02-14T10:57:49.088Z,26.7
2018-02-14T10:58:21.252Z,26.6
2018-02-14T10:58:53.336Z,26.5
2018-02-14T10:59:25.400Z,26.7
2018-02-14T10:59:57.458Z,26.5
2018-02-14T11:00:29.440Z,26.71
2018-02-14T11:01:01.513Z,26.61
2018-02-14T11:01:33.583Z,26.7
2018-02-14T11:02:06.208Z,26.71
2018-02-14T11:02:38.374Z,26.7
2018-02-14T11:03:11.071Z,26.51
2018-02-14T11:03:46.017Z,26.42
2018-02-14T11:04:18.391Z,26.42
2018-02-14T11:04:50.651Z,26.51
2018-02-14T11:05:25.557Z,26.32
2018-02-14T11:06:01.396Z,26.42
2018-02-14T11:06:35.715Z,26.42
2018-02-14T11:07:07.830Z,26.03
2018-02-14T11:07:39.890Z,26.12
2018-02-14T11:08:11.983Z,26.03
2018-02-14T11:08:44.122Z,26.22
2018-02-14T11:09:17.791Z,26.12
2018-02-14T11:09:52.117Z,26.12
2018-02-14T11:10:25.480Z,26.14
2018-02-14T11:10:57.505Z,26.14
2018-02-14T11:11:29.567Z,26.33
2018-02-14T11:12:01.561Z,26.33
2018-02-14T11:12:33.569Z,26.33
2018-02-14T11:13:05.618Z,26.14
2018-02-14T11:13:37.613Z,26.23
2018-02-14T11:14:09.663Z,26.33
2018-02-14T11:14:41.699Z,26.33
2018-02-14T11:15:13.703Z,26.23
2018-02-14T11:15:45.841Z,26.53
2018-02-14T11:16:18.045Z,26.14
2018-02-14T11:16:50.104Z,26.53
2018-02-14T11:17:22.143Z,26.43
2018-02-14T11:17:54.186Z,26.04
2018-02-14T11:18:26.215Z,26.14
2018-02-14T11:18:58.247Z,26.14
2018-02-14T11:19:30.243Z,26.25
2018-02-14T11:20:03.214Z,25.96
2018-02-14T11:20:35.271Z,25.96
2018-02-14T11:21:07.302Z,26.25
2018-02-14T11:21:39.340Z,25.96
2018-02-14T11:22:11.413Z,25.86
2018-02-14T11:22:43.844Z,26.15
2018-02-14T11:23:15.921Z,25.86
2018-02-14T11:23:47.937Z,26.15
2018-02-14T11:24:19.948Z,25.86
2018-02-14T11:24:51.985Z,25.96
2018-02-14T11:25:24.000Z,25.76
2018-02-14T11:25:56.016Z,25.86
2018-02-14T11:26:28.651Z,25.86
2018-02-14T11:27:00.752Z,26.06
2018-02-14T11:27:32.888Z,26.06
2018-02-14T11:28:05.531Z,25.96
2018-02-14T11:28:37.552Z,25.96
2018-02-14T11:29:09.563Z,25.86
2018-02-14T11:29:41.563Z,25.96
2018-02-14T11:30:13.616Z,25.76
2018-02-14T11:30:45.615Z,25.96
2018-02-14T11:31:18.525Z,25.86
2018-02-14T11:31:50.519Z,25.78
2018-02-14T11:32:22.535Z,25.87
2018-02-14T11:32:54.555Z,26.07
2018-02-14T11:33:26.566Z,25.97
2018-02-14T11:33:58.562Z,26.07
2018-02-14T11:34:30.579Z,25.97
2018-02-14T11:35:02.623Z,25.87
2018-02-14T11:35:35.562Z,26.07
2018-02-14T11:36:07.551Z,26.07
2018-02-14T11:36:40.355Z,25.87
2018-02-14T11:37:12.410Z,26.07
2018-02-14T11:37:44.457Z,26.07
2018-02-14T11:38:16.433Z,26.07
2018-02-14T11:38:48.437Z,26.07
2018-02-14T11:39:20.558Z,26.17
2018-02-14T11:39:52.518Z,25.97
2018-02-14T11:40:25.230Z,26.07
2018-02-14T11:40:57.196Z,25.97
2018-02-14T11:41:29.203Z,25.98
2018-02-14T11:42:01.332Z,26.17
2018-02-14T11:42:33.419Z,25.97
2018-02-14T11:43:05.507Z,25.98
2018-02-14T11:43:37.544Z,25.97
2018-02-14T11:44:09.713Z,25.98
2018-02-14T11:44:41.712Z,25.98
2018-02-14T11:45:13.790Z,25.89
2018-02-14T11:45:45.868Z,25.78
2018-02-14T11:46:17.968Z,26.08
2018-02-14T11:46:50.643Z,26.08
2018-02-14T11:47:22.741Z,25.97
2018-02-14T11:47:54.908Z,25.87
2018-02-14T11:48:27.078Z,25.79
2018-02-14T11:48:59.107Z,25.89
2018-02-14T11:49:31.164Z,26.08
2018-02-14T11:50:03.178Z,26.08
2018-02-14T11:50:35.215Z,25.98
2018-02-14T11:51:07.299Z,25.98
2018-02-14T11:51:39.285Z,25.98
2018-02-14T11:52:11.286Z,25.79
2018-02-14T11:52:43.283Z,25.89
2018-02-14T11:53:15.788Z,25.89
2018-02-14T11:53:48.505Z,25.49
2018-02-14T11:54:21.397Z,25.98
2018-02-14T11:54:53.398Z,25.79
2018-02-14T11:55:25.615Z,25.79
2018-02-14T11:55:57.738Z,25.79
2018-02-14T11:56:30.495Z,25.49
2018-02-14T11:57:02.517Z,25.69
2018-02-14T11:57:34.547Z,25.4
2018-02-14T11:58:06.565Z,25.4
2018-02-14T11:58:38.637Z,25.4
2018-02-14T11:59:10.635Z,25.51
2018-02-14T11:59:42.632Z,25.49
2018-02-14T12:00:14.648Z,25.51
2018-02-14T12:00:46.677Z,25.41
2018-02-14T12:01:18.848Z,25.6
2018-02-14T12:01:50.855Z,25.6
2018-02-14T12:02:22.857Z,25.6
2018-02-14T12:02:54.890Z,25.51
2018-02-14T12:03:26.892Z,25.41
2018-02-14T12:03:58.917Z,25.9
2018-02-14T12:04:30.926Z,25.41
2018-02-14T12:05:02.990Z,25.7
2018-02-14T12:05:35.000Z,25.6
2018-02-14T12:06:07.030Z,25.62
2018-02-14T12:06:39.088Z,25.32
2018-02-14T12:07:11.057Z,25.42
2018-02-14T12:07:43.084Z,25.32
2018-02-14T12:08:15.182Z,25.23
2018-02-14T12:08:47.179Z,25.23
2018-02-14T12:09:19.228Z,25.52
2018-02-14T12:09:51.300Z,25.43
2018-02-14T12:10:23.313Z,25.14
2018-02-14T12:10:55.361Z,25.24
2018-02-14T12:11:27.549Z,25.42
2018-02-14T12:11:59.585Z,25.24
2018-02-14T12:12:31.627Z,25.24
2018-02-14T12:13:03.692Z,25.34
2018-02-14T12:13:35.697Z,25.24
2018-02-14T12:14:07.742Z,25.24
2018-02-14T12:14:39.687Z,25.24
2018-02-14T12:15:11.724Z,25.43
2018-02-14T12:15:43.735Z,24.77
2018-02-14T12:16:15.851Z,24.77
2018-02-14T12:16:47.869Z,25.15
2018-02-14T12:17:19.903Z,24.96
2018-02-14T12:17:51.980Z,25.05
2018-02-14T12:18:23.994Z,25.25
2018-02-14T12:18:56.028Z,25.16
2018-02-14T12:19:28.155Z,25.07
2018-02-14T12:20:00.283Z,24.98
2018-02-14T12:20:32.387Z,25.07
2018-02-14T12:21:04.365Z,25.07
2018-02-14T12:21:36.386Z,25.07
2018-02-14T12:22:08.401Z,24.88
2018-02-14T12:22:40.439Z,24.98
2018-02-14T12:23:12.401Z,24.88
2018-02-14T12:23:44.530Z,25.07
2018-02-14T12:24:17.315Z,24.98
2018-02-14T12:24:49.315Z,25.08
2018-02-14T12:25:21.382Z,24.79
2018-02-14T12:25:53.477Z,24.69
2018-02-14T12:26:25.498Z,24.79
2018-02-14T12:26:57.689Z,24.79
2018-02-14T12:27:29.724Z,24.69
2018-02-14T12:28:01.739Z,24.89
2018-02-14T12:28:33.857Z,24.5
2018-02-14T12:29:05.948Z,24.69
2018-02-14T12:29:37.968Z,24.61
2018-02-14T12:30:09.974Z,24.61
2018-02-14T12:30:42.007Z,24.9
2018-02-14T12:31:14.122Z,24.9
2018-02-14T12:31:46.152Z,24.8
2018-02-14T12:32:18.170Z,24.9
2018-02-14T12:32:50.988Z,24.61
2018-02-14T12:33:23.029Z,24.22
2018-02-14T12:33:55.077Z,24.22
2018-02-14T12:34:27.102Z,24.32
2018-02-14T12:34:59.107Z,24.32
2018-02-14T12:35:31.129Z,24.42
2018-02-14T12:36:03.167Z,24.62
2018-02-14T12:36:35.181Z,24.42
2018-02-14T12:37:07.210Z,24.52
2018-02-14T12:37:39.266Z,24.62
2018-02-14T12:38:11.284Z,24.22
2018-02-14T12:38:43.919Z,24.42
2018-02-14T12:39:15.957Z,24.42
2018-02-14T12:39:47.972Z,24.33
2018-02-14T12:40:19.955Z,24.24
2018-02-14T12:40:51.944Z,24.14
2018-02-14T12:41:23.927Z,24.33
2018-02-14T12:41:55.916Z,24.33
2018-02-14T12:42:27.926Z,24.33
2018-02-14T12:43:00.508Z,24.33
2018-02-14T12:43:33.089Z,24.15
2018-02-14T12:44:05.104Z,24.15
2018-02-14T12:44:37.130Z,24.05
2018-02-14T12:45:09.180Z,24.15
2018-02-14T12:45:42.056Z,24.15
2018-02-14T12:46:14.074Z,24.15
2018-02-14T12:46:46.100Z,24.05
2018-02-14T12:47:18.133Z,24.15
2018-02-14T12:47:50.136Z,24.07
2018-02-14T12:48:22.194Z,24.25
2018-02-14T12:48:54.253Z,24.26
2018-02-14T12:49:26.279Z,24.36
2018-02-14T12:49:58.274Z,24.07
2018-02-14T12:50:30.256Z,24.16
2018-02-14T12:51:02.319Z,23.77
2018-02-14T12:51:34.349Z,23.97
2018-02-14T12:52:06.538Z,23.88
2018-02-14T12:52:38.625Z,23.98
2018-02-14T12:53:10.774Z,23.97
2018-02-14T12:53:42.749Z,23.88
2018-02-14T12:54:14.773Z,23.49
2018-02-14T12:54:46.805Z,23.59
2018-02-14T12:55:18.855Z,23.59
2018-02-14T12:55:50.878Z,23.59
2018-02-14T12:56:22.961Z,23.59
2018-02-14T12:56:54.953Z,23.49
2018-02-14T12:57:26.961Z,23.49
2018-02-14T12:57:58.964Z,23.7
2018-02-14T12:58:30.993Z,23.5
2018-02-14T12:59:03.060Z,23.69
2018-02-14T12:59:35.096Z,23.41
2018-02-14T13:00:07.143Z,23.6
2018-02-14T13:00:39.151Z,23.6
2018-02-14T13:01:11.226Z,23.41
2018-02-14T13:01:43.296Z,23.31
2018-02-14T13:02:15.313Z,23.41
2018-02-14T13:02:47.369Z,23.41
2018-02-14T13:03:19.395Z,23.31
2018-02-14T13:03:51.402Z,23.41
2018-02-14T13:04:24.716Z,23.42
2018-02-14T13:04:57.411Z,23.41
2018-02-14T13:05:29.427Z,23.5
2018-02-14T13:06:02.145Z,23.11
2018-02-14T13:06:34.193Z,23.02
2018-02-14T13:07:06.269Z,23.12
2018-02-14T13:07:38.247Z,23.22
2018-02-14T13:08:10.225Z,23.21
2018-02-14T13:08:42.271Z,23.22
2018-02-14T13:09:14.328Z,23.22
2018-02-14T13:09:46.375Z,23.02
2018-02-14T13:10:18.371Z,22.92
2018-02-14T13:10:50.355Z,23.02
2018-02-14T13:11:22.392Z,23.32
2018-02-14T13:11:54.410Z,23.32
2018-02-14T13:12:26.444Z,23.12
2018-02-14T13:12:58.466Z,23.32
2018-02-14T13:13:30.515Z,23.32
2018-02-14T13:14:02.492Z,23.13
2018-02-14T13:14:35.426Z,23.02
2018-02-14T13:15:07.387Z,23.13
2018-02-14T13:15:39.339Z,23.02
2018-02-14T13:16:11.346Z,23.03
2018-02-14T13:16:43.373Z,23.03
2018-02-14T13:17:15.400Z,22.84
2018-02-14T13:17:47.428Z,22.64
2018-02-14T13:18:19.449Z,22.74
2018-02-14T13:18:51.469Z,22.74
2018-02-14T13:19:23.566Z,22.84
2018-02-14T13:19:55.675Z,22.64
2018-02-14T13:20:27.701Z,22.84
2018-02-14T13:21:00.705Z,22.64
2018-02-14T13:21:32.884Z,22.55
2018-02-14T13:22:04.908Z,22.46
2018-02-14T13:22:37.680Z,22.46
2018-02-14T13:23:09.696Z,22.56
2018-02-14T13:23:42.456Z,22.46
2018-02-14T13:24:14.567Z,22.46
2018-02-14T13:24:47.435Z,22.56
2018-02-14T13:25:19.519Z,22.66
2018-02-14T13:25:51.554Z,22.56
2018-02-14T13:26:23.587Z,22.75
2018-02-14T13:26:55.598Z,22.75
2018-02-14T13:27:27.740Z,22.66
2018-02-14T13:27:59.708Z,22.75
2018-02-14T13:28:31.741Z,22.67
2018-02-14T13:29:03.829Z,22.66
2018-02-14T13:29:35.861Z,22.47
2018-02-14T13:30:07.857Z,22.17
2018-02-14T13:30:39.852Z,22.17
2018-02-14T13:31:11.832Z,22.17
2018-02-14T13:31:43.823Z,22.37
2018-02-14T13:32:16.518Z,22.37
2018-02-14T13:32:48.519Z,22.37
2018-02-14T13:33:20.533Z,22.37
2018-02-14T13:33:53.233Z,22.37
2018-02-14T13:34:26.249Z,22.37
2018-02-14T13:34:58.834Z,22.37
2018-02-14T13:35:30.827Z,22.27
2018-02-14T13:36:02.910Z,22.37
2018-02-14T13:36:35.080Z,22.27
2018-02-14T13:37:07.215Z,22.47
2018-02-14T13:37:39.214Z,22.09
2018-02-14T13:38:11.224Z,22.08
2018-02-14T13:38:43.298Z,22.17
2018-02-14T13:39:15.277Z,22.27
2018-02-14T13:39:47.329Z,22.19
2018-02-14T13:40:19.407Z,22.17
2018-02-14T13:40:51.555Z,22.38
2018-02-14T13:41:23.602Z,22.38
2018-02-14T13:41:55.653Z,22.09
2018-02-14T13:42:27.632Z,22.09
2018-02-14T13:42:59.694Z,22.19
2018-02-14T13:43:31.717Z,22.19
2018-02-14T13:44:03.756Z,21.8
2018-02-14T13:44:35.795Z,21.89
2018-02-14T13:45:09.160Z,21.99
2018-02-14T13:45:41.138Z,21.99
2018-02-14T13:46:13.774Z,22.09
2018-02-14T13:46:46.667Z,21.99
2018-02-14T13:47:18.698Z,21.99
2018-02-14T13:47:51.579Z,22.09
2018-02-14T13:48:24.251Z,22.09
2018-02-14T13:48:56.365Z,22.09
2018-02-14T13:49:28.627Z,21.99
2018-02-14T13:50:00.686Z,22.09
2018-02-14T13:50:32.755Z,21.99
2018-02-14T13:51:04.778Z,21.89
2018-02-14T13:51:37.374Z,21.89
2018-02-14T13:52:09.346Z,21.89
2018-02-14T13:52:41.345Z,21.69
2018-02-14T13:53:13.385Z,21.8
2018-02-14T13:53:45.426Z,21.99
2018-02-14T13:54:17.423Z,21.69
2018-02-14T13:54:49.443Z,21.69
2018-02-14T13:55:21.482Z,21.99
2018-02-14T13:55:53.528Z,21.8
2018-02-14T13:56:26.409Z,21.89
2018-02-14T13:56:58.971Z,21.99
2018-02-14T13:57:31.145Z,21.89
2018-02-14T13:58:04.646Z,21.89
2018-02-14T13:58:37.765Z,21.69
2018-02-14T13:59:10.236Z,21.59
2018-02-14T13:59:43.172Z,21.59
2018-02-14T14:00:15.240Z,21.69
2018-02-14T14:00:47.245Z,21.59
2018-02-14T14:01:19.276Z,21.89
2018-02-14T14:01:51.351Z,21.89
2018-02-14T14:02:23.394Z,21.69
2018-02-14T14:02:55.429Z,21.8
2018-02-14T14:03:27.530Z,21.8
2018-02-14T14:03:59.833Z,21.69
2018-02-14T14:04:32.004Z,21.8
2018-02-14T14:05:03.992Z,21.8
2018-02-14T14:05:35.991Z,21.69
2018-02-14T14:06:08.021Z,21.69
2018-02-14T14:06:40.761Z,21.8
2018-02-14T14:07:14.213Z,21.78
2018-02-14T14:07:47.265Z,21.88
2018-02-14T14:08:19.263Z,21.88
2018-02-14T14:08:51.970Z,21.98
2018-02-14T14:09:23.938Z,21.98
2018-02-14T14:09:56.001Z,21.98
2018-02-14T14:10:28.069Z,21.98
2018-02-14T14:11:00.290Z,21.88
2018-02-14T14:11:33.639Z,21.88
2018-02-14T14:12:05.626Z,21.88
2018-02-14T14:12:37.759Z,21.98
2018-02-14T14:13:09.835Z,21.88
2018-02-14T14:13:41.987Z,21.88
2018-02-14T14:14:14.715Z,21.98
2018-02-14T14:14:46.776Z,21.98
2018-02-14T14:15:19.685Z,21.78
2018-02-14T14:15:51.699Z,21.69
2018-02-14T14:16:23.738Z,21.88
2018-02-14T14:16:56.555Z,21.69
2018-02-14T14:17:31.526Z,21.88
2018-02-14T14:18:03.604Z,21.67
2018-02-14T14:18:35.620Z,21.59
2018-02-14T14:19:07.607Z,21.67
2018-02-14T14:19:39.897Z,21.77
2018-02-14T14:20:12.580Z,21.77
2018-02-14T14:20:44.752Z,21.67
2018-02-14T14:21:16.754Z,21.67
2018-02-14T14:21:48.770Z,21.87
2018-02-14T14:22:20.842Z,21.77
2018-02-14T14:22:52.861Z,21.67
2018-02-14T14:23:24.958Z,21.67
2018-02-14T14:23:56.991Z,21.67
2018-02-14T14:24:29.025Z,21.67
2018-02-14T14:25:01.048Z,21.67
2018-02-14T14:25:33.073Z,21.77
2018-02-14T14:26:05.104Z,21.67
2018-02-14T14:26:37.152Z,21.86
2018-02-14T14:27:09.780Z,21.77
2018-02-14T14:27:41.869Z,21.76
2018-02-14T14:28:14.050Z,21.66
2018-02-14T14:28:46.175Z,21.66
2018-02-14T14:29:18.328Z,21.86
2018-02-14T14:29:50.338Z,21.86
2018-02-14T14:30:23.143Z,21.86
2018-02-14T14:30:55.960Z,21.96
2018-02-14T14:31:28.052Z,22.06
2018-02-14T14:32:00.087Z,21.96
2018-02-14T14:32:32.123Z,21.96
2018-02-14T14:33:04.152Z,21.86
2018-02-14T14:33:36.205Z,21.86
2018-02-14T14:34:08.659Z,21.86
2018-02-14T14:34:40.834Z,21.95
2018-02-14T14:35:12.922Z,21.85
2018-02-14T14:35:46.281Z,21.85
2018-02-14T14:36:18.869Z,21.95
2018-02-14T14:36:50.897Z,21.75
2018-02-14T14:37:22.959Z,21.75
2018-02-14T14:37:54.978Z,21.75
2018-02-14T14:38:27.676Z,21.75
2018-02-14T14:38:59.722Z,21.75
2018-02-14T14:39:32.798Z,21.85
2018-02-14T14:40:04.871Z,21.55
2018-02-14T14:40:36.918Z,21.55
2018-02-14T14:41:08.969Z,21.74
2018-02-14T14:41:42.539Z,21.74
2018-02-14T14:42:15.785Z,21.74
2018-02-14T14:42:47.939Z,21.94
2018-02-14T14:43:20.046Z,21.94
2018-02-14T14:43:52.076Z,21.74
2018-02-14T14:44:24.083Z,21.92
2018-02-14T14:44:56.094Z,21.92
2018-02-14T14:45:28.959Z,21.73
2018-02-14T14:46:00.957Z,21.73
2018-02-14T14:46:32.974Z,21.63
2018-02-14T14:47:05.016Z,21.81
2018-02-14T14:47:37.768Z,21.92
2018-02-14T14:48:12.115Z,22.02
2018-02-14T14:48:44.993Z,22.02
2018-02-14T14:49:18.086Z,22
2018-02-14T14:49:50.155Z,22
2018-02-14T14:50:22.588Z,21.91
2018-02-14T14:50:56.073Z,22
2018-02-14T14:51:28.836Z,22.1
2018-02-14T14:52:01.181Z,22.19
2018-02-14T14:52:33.172Z,22.28
2018-02-14T14:53:05.274Z,22.09
2018-02-14T14:53:37.435Z,22.09
2018-02-14T14:54:09.461Z,21.98
2018-02-14T14:54:41.468Z,21.98
2018-02-14T14:55:13.564Z,22.37
2018-02-14T14:55:45.616Z,22.17
2018-02-14T14:56:18.324Z,22.46
2018-02-14T14:56:50.348Z,22.36
2018-02-14T14:57:23.042Z,22.17
2018-02-14T14:57:55.904Z,22.17
2018-02-14T14:58:28.037Z,22.35
2018-02-14T14:59:00.062Z,22.55
2018-02-14T14:59:32.072Z,22.55
2018-02-14T15:00:04.077Z,22.55
2018-02-14T15:00:36.764Z,22.53
2018-02-14T15:01:08.732Z,22.44
2018-02-14T15:01:40.768Z,22.34
2018-02-14T15:02:12.767Z,22.81
2018-02-14T15:02:44.794Z,22.62
2018-02-14T15:03:16.779Z,22.72
2018-02-14T15:03:48.806Z,22.72
2018-02-14T15:04:20.828Z,22.61
2018-02-14T15:04:52.922Z,22.51
2018-02-14T15:05:24.969Z,23
2018-02-14T15:05:57.727Z,22.9
2018-02-14T15:06:29.811Z,22.99
2018-02-14T15:07:02.814Z,22.89
2018-02-14T15:07:35.815Z,22.79
2018-02-14T15:08:07.836Z,22.89
2018-02-14T15:08:39.980Z,23.07
2018-02-14T15:09:12.002Z,22.88
2018-02-14T15:09:44.026Z,22.97
2018-02-14T15:10:16.028Z,22.78
2018-02-14T15:10:48.032Z,22.97
2018-02-14T15:11:20.016Z,23.16
2018-02-14T15:11:52.049Z,23.16
2018-02-14T15:12:24.053Z,23.16
2018-02-14T15:12:56.079Z,23.07
2018-02-14T15:13:28.079Z,22.97
2018-02-14T15:14:00.155Z,23.16
2018-02-14T15:14:32.204Z,22.96
2018-02-14T15:15:04.196Z,22.86
2018-02-14T15:15:37.154Z,22.96
2018-02-14T15:16:09.213Z,23.05
2018-02-14T15:16:41.227Z,23.04
2018-02-14T15:17:13.188Z,22.94
2018-02-14T15:17:45.330Z,22.85
2018-02-14T15:18:17.340Z,22.94
2018-02-14T15:18:49.375Z,23.33
2018-02-14T15:19:21.419Z,23.32
2018-02-14T15:19:54.215Z,23.32
2018-02-14T15:20:26.259Z,23.22
2018-02-14T15:20:58.313Z,23.13
2018-02-14T15:21:30.356Z,23.22
2018-02-14T15:22:02.414Z,23.22
2018-02-14T15:22:34.449Z,23.31
2018-02-14T15:23:06.434Z,23.41
2018-02-14T15:23:38.452Z,23.11
2018-02-14T15:24:10.454Z,23.11
2018-02-14T15:24:42.597Z,23.21
2018-02-14T15:25:14.612Z,23.31
2018-02-14T15:25:46.604Z,23.3
2018-02-14T15:26:18.597Z,23.49
2018-02-14T15:26:50.649Z,23.39
2018-02-14T15:27:22.627Z,23.49
2018-02-14T15:27:54.736Z,23.3
2018-02-14T15:28:26.723Z,23.3
2018-02-14T15:28:58.751Z,23.28
2018-02-14T15:29:30.818Z,23.19
2018-02-14T15:30:02.814Z,23.38
2018-02-14T15:30:34.896Z,23.48
2018-02-14T15:31:07.832Z,23.28
2018-02-14T15:31:39.860Z,23.48
2018-02-14T15:32:11.854Z,23.27
2018-02-14T15:32:43.871Z,23.27
2018-02-14T15:33:15.866Z,23.27
2018-02-14T15:33:47.869Z,23.27
2018-02-14T15:34:19.924Z,23.37
2018-02-14T15:34:51.921Z,23.55
2018-02-14T15:35:23.943Z,23.46
2018-02-14T15:35:55.940Z,23.46
2018-02-14T15:36:28.743Z,23.46
2018-02-14T15:37:01.334Z,23.46
2018-02-14T15:37:33.337Z,23.46
2018-02-14T15:38:05.322Z,23.26
2018-02-14T15:38:37.359Z,23.75
2018-02-14T15:39:09.377Z,23.65
2018-02-14T15:39:41.419Z,23.65
2018-02-14T15:40:13.511Z,23.75
2018-02-14T15:40:45.668Z,23.74
2018-02-14T15:41:17.670Z,23.74
2018-02-14T15:41:49.692Z,23.74
2018-02-14T15:42:21.771Z,23.74
2018-02-14T15:42:53.802Z,23.64
2018-02-14T15:43:25.777Z,23.64
2018-02-14T15:43:57.738Z,23.64
2018-02-14T15:44:29.780Z,23.54
2018-02-14T15:45:01.824Z,23.64
2018-02-14T15:45:33.882Z,23.63
2018-02-14T15:46:05.891Z,23.63
2018-02-14T15:46:37.886Z,23.92
2018-02-14T15:47:09.976Z,23.72
2018-02-14T15:47:43.849Z,23.63
2018-02-14T15:48:15.883Z,23.82
2018-02-14T15:48:48.842Z,23.92
2018-02-14T15:49:21.658Z,23.63
2018-02-14T15:49:53.692Z,24.02
2018-02-14T15:50:25.716Z,23.72
2018-02-14T15:50:57.738Z,24.11
2018-02-14T15:51:29.736Z,23.81
2018-02-14T15:52:01.699Z,23.81
2018-02-14T15:52:34.255Z,23.91
2018-02-14T15:53:06.284Z,23.81
2018-02-14T15:53:38.364Z,23.81
2018-02-14T15:54:10.351Z,24.01
2018-02-14T15:54:42.374Z,23.81
2018-02-14T15:55:14.406Z,23.81
2018-02-14T15:55:46.410Z,23.91
2018-02-14T15:56:18.435Z,23.71
2018-02-14T15:56:50.469Z,23.99
2018-02-14T15:57:22.492Z,23.9
2018-02-14T15:57:55.163Z,23.9
2018-02-14T15:58:27.249Z,23.7
2018-02-14T15:58:59.265Z,23.7
2018-02-14T15:59:31.300Z,23.7
2018-02-14T16:00:03.324Z,23.8
2018-02-14T16:00:36.032Z,23.8